createdAt,value
2023-02-25T00:00:34.535Z,99170.00
2023-02-25T00:03:03.753Z,99176.78
2023-02-25T00:05:33.941Z,99174.81
2023-02-25T00:08:02.020Z,99181.59
2023-02-25T00:10:31.692Z,99175.56
2023-02-25T00:13:15.953Z,99178.41
2023-02-25T00:15:47.100Z,99187.97
2023-02-25T00:18:14.956Z,99188.63
2023-02-25T00:20:43.662Z,99193.84
2023-02-25T00:23:14.036Z,99196.88
2023-02-25T00:25:43.518Z,99205.22
2023-02-25T00:28:12.380Z,99210.16
2023-02-25T00:30:42.723Z,99215.47
2023-02-25T00:33:13.265Z,99214.66
2023-02-25T00:35:43.497Z,99212.19
2023-02-25T00:38:15.959Z,99209.13
2023-02-25T00:40:45.432Z,99209.28
2023-02-25T00:43:18.105Z,99211.31
2023-02-25T00:45:46.134Z,99202.66
2023-02-25T00:48:22.355Z,99210.69
2023-02-25T00:50:51.816Z,99227.25
2023-02-25T00:53:19.650Z,99219.84
2023-02-25T00:55:47.882Z,99223.31
2023-02-25T00:58:18.334Z,99216.47
2023-02-25T01:00:52.074Z,99205.25
2023-02-25T01:03:23.474Z,99202.44
2023-02-25T01:05:57.216Z,99204.53
2023-02-25T01:08:26.316Z,99199.41
2023-02-25T01:10:54.808Z,99198.66
2023-02-25T01:13:23.111Z,99194.25
2023-02-25T01:15:53.414Z,99212.56
2023-02-25T01:18:23.145Z,99197.69
2023-02-25T01:20:51.194Z,99202.63
2023-02-25T01:23:19.163Z,99211.72
2023-02-25T01:25:47.508Z,99202.53
2023-02-25T01:28:17.375Z,99213.09
2023-02-25T01:30:48.071Z,99210.97
2023-02-25T01:33:20.223Z,99202.38
2023-02-25T01:35:49.743Z,99204.25
2023-02-25T01:38:17.827Z,99203.69
2023-02-25T01:40:46.118Z,99200.66
2023-02-25T01:43:16.507Z,99189.41
2023-02-25T01:45:49.569Z,99182.91
2023-02-25T01:48:24.778Z,99183.38
2023-02-25T01:51:00.386Z,99185.59
2023-02-25T01:53:36.011Z,99194.09
2023-02-25T01:56:05.171Z,99193.56
2023-02-25T01:58:38.289Z,99182.06
2023-02-25T02:01:24.462Z,99194.34
2023-02-25T02:03:53.582Z,99199.06
2023-02-25T02:06:29.284Z,99201.63
2023-02-25T02:09:01.262Z,99205.00
2023-02-25T02:11:31.098Z,99209.66
2023-02-25T02:14:01.761Z,99207.38
2023-02-25T02:17:09.778Z,99205.75
2023-02-25T02:19:57.021Z,99201.63
2023-02-25T02:22:41.026Z,99212.19
2023-02-25T02:25:59.810Z,99200.78
2023-02-25T02:29:00.083Z,99209.75
2023-02-25T02:31:52.233Z,99216.44
2023-02-25T02:34:32.544Z,99196.34
2023-02-25T02:37:11.787Z,99200.69
2023-02-25T02:39:53.445Z,99205.41
2023-02-25T02:42:33.153Z,99196.50
2023-02-25T02:45:09.456Z,99198.56
2023-02-25T02:47:43.931Z,99187.97
2023-02-25T02:50:18.620Z,99171.94
2023-02-25T02:52:53.016Z,99186.34
2023-02-25T02:55:27.819Z,99189.19
2023-02-25T02:58:06.141Z,99189.59
2023-02-25T03:00:39.248Z,99194.88
2023-02-25T03:03:14.602Z,99192.59
2023-02-25T03:05:46.139Z,99205.09
2023-02-25T03:08:21.468Z,99197.69
2023-02-25T03:10:51.415Z,99209.00
2023-02-25T03:13:22.915Z,99217.69
2023-02-25T03:15:56.824Z,99218.97
2023-02-25T03:18:37.612Z,99215.53
2023-02-25T03:21:14.682Z,99216.81
2023-02-25T03:23:46.676Z,99222.81
2023-02-25T03:26:25.152Z,99232.91
2023-02-25T03:28:58.269Z,99224.63
2023-02-25T03:31:29.343Z,99225.66
2023-02-25T03:34:03.315Z,99224.22
2023-02-25T03:36:37.609Z,99232.44
2023-02-25T03:39:13.490Z,99234.59
2023-02-25T03:41:46.817Z,99233.84
2023-02-25T03:44:20.063Z,99234.31
2023-02-25T03:46:50.640Z,99235.66
2023-02-25T03:49:31.694Z,99234.47
2023-02-25T03:52:04.401Z,99235.97
2023-02-25T03:54:33.432Z,99243.47
2023-02-25T03:57:08.775Z,99254.25
2023-02-25T03:59:36.951Z,99251.41
2023-02-25T04:02:07.153Z,99243.47
2023-02-25T04:04:36.415Z,99251.25
2023-02-25T04:07:04.496Z,99250.16
2023-02-25T04:09:32.554Z,99255.19
2023-02-25T04:12:01.798Z,99260.34
2023-02-25T04:14:29.664Z,99249.38
2023-02-25T04:16:57.508Z,99255.44
2023-02-25T04:19:28.497Z,99254.66
2023-02-25T04:22:02.678Z,99256.28
2023-02-25T04:24:32.002Z,99255.63
2023-02-25T04:27:02.745Z,99248.31
2023-02-25T04:29:33.119Z,99240.31
2023-02-25T04:32:08.315Z,99229.53
2023-02-25T04:34:36.456Z,99243.13
2023-02-25T04:37:06.210Z,99246.13
2023-02-25T04:39:36.386Z,99244.75
2023-02-25T04:42:05.443Z,99248.66
2023-02-25T04:44:33.755Z,99249.13
2023-02-25T04:47:02.133Z,99260.94
2023-02-25T04:49:30.515Z,99243.97
2023-02-25T04:51:59.618Z,99260.31
2023-02-25T04:54:31.256Z,99258.25
2023-02-25T04:57:01.544Z,99258.03
2023-02-25T04:59:30.165Z,99243.56
2023-02-25T05:01:58.218Z,99260.72
2023-02-25T05:04:26.593Z,99264.25
2023-02-25T05:06:55.683Z,99267.94
2023-02-25T05:09:23.853Z,99266.69
2023-02-25T05:11:55.060Z,99259.41
2023-02-25T05:14:22.904Z,99265.38
2023-02-25T05:17:02.157Z,99263.56
2023-02-25T05:19:30.255Z,99271.00
2023-02-25T05:22:01.096Z,99258.91
2023-02-25T05:24:30.101Z,99261.47
2023-02-25T05:27:08.361Z,99259.38
2023-02-25T05:29:39.324Z,99272.72
2023-02-25T05:32:10.378Z,99277.25
2023-02-25T05:34:38.633Z,99275.78
2023-02-25T05:37:07.476Z,99274.31
2023-02-25T05:39:35.606Z,99272.28
2023-02-25T05:42:06.164Z,99266.69
2023-02-25T05:44:37.622Z,99261.09
2023-02-25T05:47:07.506Z,99261.06
2023-02-25T05:49:35.807Z,99271.38
2023-02-25T05:52:05.208Z,99261.06
2023-02-25T05:54:33.261Z,99256.84
2023-02-25T05:57:03.672Z,99266.78
2023-02-25T05:59:37.889Z,99259.41
2023-02-25T06:02:06.357Z,99267.91
2023-02-25T06:04:35.618Z,99277.56
2023-02-25T06:07:04.490Z,99280.69
2023-02-25T06:09:34.799Z,99278.91
2023-02-25T06:12:03.704Z,99274.34
2023-02-25T06:14:33.259Z,99262.94
2023-02-25T06:17:02.299Z,99274.16
2023-02-25T06:19:30.380Z,99271.84
2023-02-25T06:21:58.397Z,99280.56
2023-02-25T06:24:27.425Z,99288.81
2023-02-25T06:26:55.127Z,99270.94
2023-02-25T06:29:23.076Z,99283.84
2023-02-25T06:31:54.838Z,99280.22
2023-02-25T06:34:23.841Z,99294.41
2023-02-25T06:36:56.203Z,99296.19
2023-02-25T06:39:27.223Z,99295.78
2023-02-25T06:41:55.434Z,99294.38
2023-02-25T06:44:24.838Z,99310.13
2023-02-25T06:47:05.019Z,99303.31
2023-02-25T06:49:32.957Z,99304.28
2023-02-25T06:52:01.273Z,99304.31
2023-02-25T06:54:29.089Z,99302.69
2023-02-25T06:56:59.591Z,99307.44
2023-02-25T06:59:28.478Z,99305.91
2023-02-25T07:01:57.572Z,99295.38
2023-02-25T07:04:25.883Z,99301.63
2023-02-25T07:06:57.199Z,99315.88
2023-02-25T07:12:09.313Z,99309.28
2023-02-25T07:14:37.452Z,99310.91
2023-02-25T07:17:07.748Z,99313.81
2023-02-25T07:19:40.976Z,99317.63
2023-02-25T07:22:09.979Z,99317.91
2023-02-25T07:24:41.283Z,99319.28
2023-02-25T07:27:11.243Z,99332.41
2023-02-25T07:29:40.059Z,99322.66
2023-02-25T07:32:17.304Z,99325.81
2023-02-25T07:34:52.665Z,99329.19
2023-02-25T07:37:22.645Z,99327.56
2023-02-25T07:39:52.544Z,99321.09
2023-02-25T07:42:20.516Z,99339.50
2023-02-25T07:44:53.133Z,99349.13
2023-02-25T07:47:23.534Z,99325.00
2023-02-25T07:49:53.974Z,99328.59
2023-02-25T07:52:22.036Z,99331.81
2023-02-25T07:54:51.226Z,99348.19
2023-02-25T07:57:19.399Z,99346.09
2023-02-25T08:00:01.207Z,99349.91
2023-02-25T08:02:33.288Z,99352.72
2023-02-25T08:05:04.892Z,99355.03
2023-02-25T08:07:35.622Z,99339.25
2023-02-25T08:10:05.337Z,99352.50
2023-02-25T08:12:37.184Z,99358.38
2023-02-25T08:15:07.532Z,99345.72
2023-02-25T08:17:37.243Z,99349.31
2023-02-25T08:20:07.554Z,99357.00
2023-02-25T08:22:35.951Z,99349.31
2023-02-25T08:25:04.189Z,99353.31
2023-02-25T08:27:35.220Z,99355.34
2023-02-25T08:30:12.953Z,99357.78
2023-02-25T08:32:49.325Z,99358.72
2023-02-25T08:35:20.330Z,99369.41
2023-02-25T08:37:50.400Z,99361.63
2023-02-25T08:40:20.003Z,99354.84
2023-02-25T08:42:49.550Z,99353.34
2023-02-25T08:45:22.063Z,99366.66
2023-02-25T08:47:54.745Z,99370.38
2023-02-25T08:50:25.232Z,99359.59
2023-02-25T08:52:53.848Z,99368.00
2023-02-25T08:55:25.054Z,99366.03
2023-02-25T08:57:54.526Z,99366.50
2023-02-25T09:00:24.564Z,99355.34
2023-02-25T09:02:55.862Z,99366.50
2023-02-25T09:05:25.784Z,99371.88
2023-02-25T09:07:55.316Z,99361.75
2023-02-25T09:10:25.156Z,99368.06
2023-02-25T09:13:00.333Z,99370.75
2023-02-25T09:15:29.011Z,99350.84
2023-02-25T09:18:00.547Z,99363.13
2023-02-25T09:20:28.763Z,99348.88
2023-02-25T09:22:59.957Z,99377.31
2023-02-25T09:25:30.092Z,99374.25
2023-02-25T09:28:02.732Z,99364.56
2023-02-25T09:30:30.597Z,99362.03
2023-02-25T09:33:00.347Z,99367.69
2023-02-25T09:35:29.778Z,99371.72
2023-02-25T09:37:57.508Z,99366.13
2023-02-25T09:40:26.710Z,99365.13
2023-02-25T09:43:11.671Z,99367.13
2023-02-25T09:45:39.793Z,99350.88
2023-02-25T09:48:18.552Z,99366.34
2023-02-25T09:50:54.774Z,99355.31
2023-02-25T09:53:27.966Z,99354.31
2023-02-25T09:55:56.868Z,99358.50
2023-02-25T09:58:32.915Z,99355.69
2023-02-25T10:01:07.544Z,99357.94
2023-02-25T10:03:53.272Z,99355.16
2023-02-25T10:06:32.616Z,99350.31
2023-02-25T10:09:10.608Z,99352.44
2023-02-25T10:11:47.983Z,99342.19
2023-02-25T10:14:31.264Z,99347.84
2023-02-25T10:17:09.037Z,99350.75
2023-02-25T10:19:55.427Z,99362.75
2023-02-25T10:22:42.104Z,99358.47
2023-02-25T10:25:18.278Z,99360.88
2023-02-25T10:27:51.996Z,99368.97
2023-02-25T10:30:26.855Z,99352.25
2023-02-25T10:32:56.595Z,99369.22
2023-02-25T10:35:34.740Z,99353.16
2023-02-25T10:38:02.673Z,99353.91
2023-02-25T10:40:31.264Z,99371.41
2023-02-25T10:43:04.393Z,99371.84
2023-02-25T10:45:35.781Z,99361.88
2023-02-25T10:48:11.224Z,99362.31
2023-02-25T10:50:46.313Z,99360.81
2023-02-25T10:53:17.425Z,99363.66
2023-02-25T10:55:59.287Z,99362.69
2023-02-25T10:58:47.796Z,99357.28
2023-02-25T11:01:18.517Z,99370.81
2023-02-25T11:03:59.700Z,99360.56
2023-02-25T11:06:31.650Z,99361.50
2023-02-25T11:09:07.177Z,99360.78
2023-02-25T11:11:39.531Z,99354.16
2023-02-25T11:14:25.227Z,99358.91
2023-02-25T11:17:03.814Z,99362.44
2023-02-25T11:19:36.683Z,99372.41
2023-02-25T11:22:21.297Z,99368.50
2023-02-25T11:25:01.159Z,99367.16
2023-02-25T11:27:38.981Z,99376.59
2023-02-25T11:30:20.765Z,99372.28
2023-02-25T11:32:54.665Z,99372.19
2023-02-25T11:35:30.220Z,99392.47
2023-02-25T11:38:21.025Z,99393.31
2023-02-25T11:40:49.292Z,99427.59
2023-02-25T11:43:20.817Z,99426.94
2023-02-25T11:45:55.319Z,99430.50
2023-02-25T11:48:28.913Z,99442.28
2023-02-25T11:51:09.975Z,99423.97
2023-02-25T11:53:53.277Z,99433.72
2023-02-25T11:56:27.559Z,99419.69
2023-02-25T11:59:10.478Z,99420.28
2023-02-25T12:02:00.530Z,99415.53
2023-02-25T12:04:52.064Z,99420.94
2023-02-25T12:07:55.400Z,99406.88
2023-02-25T12:10:53.700Z,99402.06
2023-02-25T12:13:59.232Z,99400.53
2023-02-25T12:17:18.385Z,99405.38
2023-02-25T12:20:17.956Z,99394.09
2023-02-25T12:23:12.116Z,99390.94
2023-02-25T12:25:52.210Z,99383.41
2023-02-25T12:28:45.179Z,99379.66
2023-02-25T12:31:39.401Z,99384.44
2023-02-25T12:34:40.768Z,99384.44
2023-02-25T12:37:42.114Z,99395.94
2023-02-25T12:40:31.561Z,99407.22
2023-02-25T12:43:22.335Z,99400.09
2023-02-25T12:46:06.114Z,99392.97
2023-02-25T12:49:22.279Z,99399.97
2023-02-25T12:52:08.526Z,99389.34
2023-02-25T12:55:08.479Z,99395.50
2023-02-25T12:57:52.325Z,99377.09
2023-02-25T13:00:49.500Z,99381.25
2023-02-25T13:03:35.848Z,99391.00
2023-02-25T13:06:47.549Z,99384.84
2023-02-25T13:09:41.130Z,99373.47
2023-02-25T13:12:37.877Z,99377.78
2023-02-25T13:15:14.197Z,99379.69
2023-02-25T13:18:24.073Z,99371.28
2023-02-25T13:21:09.393Z,99372.69
2023-02-25T13:23:58.620Z,99363.75
2023-02-25T13:26:40.433Z,99362.19
2023-02-25T13:29:24.268Z,99364.03
2023-02-25T13:32:16.212Z,99366.19
2023-02-25T13:34:53.360Z,99363.53
2023-02-25T13:37:37.880Z,99372.50
2023-02-25T13:40:46.352Z,99359.75
2023-02-25T13:43:34.623Z,99373.00
2023-02-25T13:46:31.557Z,99408.69
2023-02-25T13:49:22.108Z,99407.63
2023-02-25T13:52:23.832Z,99408.44
2023-02-25T13:55:22.555Z,99425.22
2023-02-25T13:58:20.712Z,99420.22
2023-02-25T14:01:07.892Z,99421.22
2023-02-25T14:04:25.423Z,99430.53
2023-02-25T14:07:36.552Z,99433.66
2023-02-25T14:10:26.775Z,99437.06
2023-02-25T14:13:16.107Z,99450.53
2023-02-25T14:16:00.215Z,99478.72
2023-02-25T14:19:06.349Z,99479.97
2023-02-25T14:22:02.698Z,99477.91
2023-02-25T14:24:41.785Z,99483.63
2023-02-25T14:27:26.215Z,99490.59
2023-02-25T14:30:14.273Z,99492.34
2023-02-25T14:32:54.075Z,99483.19
2023-02-25T14:35:48.290Z,99487.59
2023-02-25T14:38:23.171Z,99497.63
2023-02-25T14:41:03.772Z,99498.63
2023-02-25T14:43:36.241Z,99497.22
2023-02-25T14:46:29.844Z,99496.84
2023-02-25T14:49:02.637Z,99503.97
2023-02-25T14:51:51.941Z,99504.25
2023-02-25T14:55:06.169Z,99499.03
2023-02-25T14:57:52.444Z,99505.84
2023-02-25T15:00:50.312Z,99505.16
2023-02-25T15:03:45.198Z,99500.03
2023-02-25T15:06:42.269Z,99496.75
2023-02-25T15:09:40.185Z,99483.25
2023-02-25T15:12:30.696Z,99487.53
2023-02-25T15:15:41.026Z,99486.50
2023-02-25T15:18:28.039Z,99498.78
2023-02-25T15:20:59.379Z,99493.63
2023-02-25T15:23:52.424Z,99493.44
2023-02-25T15:26:34.305Z,99510.84
2023-02-25T15:29:02.980Z,99513.72
2023-02-25T15:31:41.261Z,99508.13
2023-02-25T15:34:37.335Z,99507.06
2023-02-25T15:37:29.161Z,99503.38
2023-02-25T15:40:02.124Z,99518.53
2023-02-25T15:42:57.604Z,99518.81
2023-02-25T15:45:46.894Z,99515.22
2023-02-25T15:48:35.266Z,99518.31
2023-02-25T15:51:10.192Z,99530.56
2023-02-25T15:53:45.068Z,99533.81
2023-02-25T15:56:51.131Z,99528.53
2023-02-25T15:59:45.332Z,99550.22
2023-02-25T16:02:51.884Z,99551.78
2023-02-25T16:05:28.726Z,99561.47
2023-02-25T16:08:08.204Z,99575.31
2023-02-25T16:10:46.373Z,99549.97
2023-02-25T16:13:17.364Z,99576.78
2023-02-25T16:15:52.153Z,99580.91
2023-02-25T16:18:33.017Z,99592.97
2023-02-25T16:21:07.384Z,99589.66
2023-02-25T16:23:41.681Z,99595.16
2023-02-25T16:26:27.152Z,99614.84
2023-02-25T16:32:03.135Z,99594.97
2023-02-25T16:34:40.695Z,99605.75
2023-02-25T16:37:17.907Z,99546.72
2023-02-25T16:39:58.522Z,99626.56
2023-02-25T16:42:54.341Z,99629.63
2023-02-25T16:45:35.409Z,99596.41
2023-02-25T16:51:39.622Z,99653.94
2023-02-25T16:57:37.398Z,99623.47
2023-02-25T17:16:52.054Z,99706.69
2023-02-25T17:27:46.472Z,99728.31
2023-02-25T17:30:37.769Z,99732.53
2023-02-25T17:37:03.986Z,99742.34
2023-02-25T17:56:28.670Z,99770.81
2023-02-25T18:06:58.683Z,99770.06
2023-02-25T18:09:44.554Z,99791.16
2023-02-25T18:12:58.554Z,99778.09
2023-02-25T18:15:32.254Z,99793.53
2023-02-25T18:18:04.274Z,99790.78
2023-02-25T18:20:37.953Z,99805.69
2023-02-25T18:26:30.160Z,99815.88
2023-02-25T18:29:30.300Z,99826.88
2023-02-25T18:32:03.173Z,99823.25
2023-02-25T18:34:32.878Z,99793.53
2023-02-25T18:37:01.202Z,99820.69
2023-02-25T18:39:31.658Z,99830.78
2023-02-25T18:42:08.061Z,99831.41
2023-02-25T18:44:41.752Z,99824.03
2023-02-25T18:47:12.610Z,99829.38
2023-02-25T18:49:49.673Z,99821.69
2023-02-25T18:52:28.695Z,99835.88
2023-02-25T18:54:58.644Z,99820.88
2023-02-25T18:58:58.249Z,99838.59
2023-02-25T19:05:08.160Z,99811.53
2023-02-25T19:07:40.605Z,99844.94
2023-02-25T19:10:21.806Z,99853.41
2023-02-25T19:12:52.217Z,99855.84
2023-02-25T19:15:23.736Z,99872.59
2023-02-25T19:17:55.128Z,99822.41
2023-02-25T19:20:28.671Z,99833.44
2023-02-25T19:22:58.927Z,99881.97
2023-02-25T19:25:35.277Z,99884.00
2023-02-25T19:28:07.621Z,99885.16
2023-02-25T19:30:42.916Z,99866.38
2023-02-25T19:33:13.104Z,99895.91
2023-02-25T19:35:44.484Z,99866.28
2023-02-25T19:38:16.014Z,99889.38
2023-02-25T19:41:01.476Z,99873.81
2023-02-25T19:43:37.892Z,99909.03
2023-02-25T19:46:11.281Z,99903.22
2023-02-25T19:48:40.654Z,99925.19
2023-02-25T19:51:21.256Z,99881.06
2023-02-25T20:46:45.762Z,99965.00
2023-02-25T21:22:06.460Z,100018.28
2023-02-25T21:25:31.859Z,100026.28
2023-02-25T22:10:46.992Z,99980.81
2023-02-25T22:13:15.191Z,99992.78
2023-02-25T22:15:49.164Z,100042.63
2023-02-25T22:18:23.428Z,100042.13
2023-02-25T22:20:51.674Z,100031.41
2023-02-25T22:23:19.999Z,100031.59
2023-02-25T22:25:58.237Z,100015.88
2023-02-25T22:28:32.013Z,100033.06
2023-02-25T22:31:02.909Z,100049.41
2023-02-25T22:33:39.481Z,100037.03
2023-02-25T22:36:40.581Z,100014.63
2023-02-25T22:39:38.295Z,100055.91
2023-02-25T22:53:12.142Z,100054.44
2023-02-25T22:55:41.978Z,100053.56
2023-02-25T23:01:41.792Z,100063.06
2023-02-25T23:08:12.146Z,100067.09
